Time;durP1;ratioP1;P1;durP2;ratioP2;P2;SDS_P1;SDS_P2;PMS_P1;PMS_P2;Temp;Humidity;BMP_temperature;BMP_pressure;BME280_temperature;BME280_humidity;BME280_pressure;Samples;Min_cycle;Max_cycle;Signal;HPM_P1;HPM_P2
2021/11/07 00:06:45;;;;;;;25.20;14.93;;;;;;;7.26;56.94;100512.09;10388290;28;20263;-62
2021/11/07 00:11:50;;;;;;;19.88;11.35;;;;;;;7.28;57.46;100488.59;10389047;28;20077;-62
2021/11/07 00:16:52;;;;;;;9.00;5.40;;;;;;;7.21;57.71;100490.59;10388206;28;20717;-62
2021/11/07 00:27:08;;;;;;;6.97;4.05;;;;;;;7.18;58.37;100456.91;10388080;28;20116;-62
2021/11/07 00:32:49;;;;;;;7.70;4.47;;;;;;;7.06;58.89;100452.16;10387694;28;20053;-62
2021/11/07 00:37:41;;;;;;;8.40;4.60;;;;;;;7.07;59.17;100433.03;10385353;28;20049;-62
2021/11/07 00:48:36;;;;;;;12.55;7.55;;;;;;;6.92;59.68;100407.59;10388216;28;20052;-62
2021/11/07 00:58:33;;;;;;;18.08;9.45;;;;;;;6.96;60.09;100383.16;10387179;28;20049;-62
2021/11/07 01:03:35;;;;;;;11.02;7.07;;;;;;;6.85;60.23;100395.72;10387069;28;20054;-62
2021/11/07 01:08:37;;;;;;;13.02;6.60;;;;;;;6.92;60.18;100408.44;10387096;28;20049;-62
2021/11/07 01:13:39;;;;;;;11.40;6.63;;;;;;;7.01;60.08;100415.06;10384678;28;20055;-62
2021/11/07 01:18:41;;;;;;;13.63;7.80;;;;;;;7.02;60.03;100407.19;10386381;28;20049;-62
2021/11/07 01:23:51;;;;;;;10.40;5.75;;;;;;;6.94;60.29;100406.63;10385286;28;20084;-62
2021/11/07 01:29:02;;;;;;;10.98;6.32;;;;;;;7.05;60.25;100403.63;10385934;28;20045;-62
2021/11/07 01:34:06;;;;;;;11.30;6.70;;;;;;;7.15;60.02;100390.22;10383444;28;20057;-62
2021/11/07 01:44:19;;;;;;;11.90;5.97;;;;;;;7.11;60.15;100367.84;10384655;28;20123;-62
2021/11/07 01:49:24;;;;;;;13.00;6.38;;;;;;;7.17;59.99;100366.75;10384760;28;20060;-62
2021/11/07 01:54:30;;;;;;;16.40;7.95;;;;;;;7.17;60.12;100351.13;10383864;28;20052;-62
2021/11/07 01:59:50;;;;;;;24.27;11.57;;;;;;;7.12;60.23;100346.13;10384887;28;20563;-62
2021/11/07 02:04:53;;;;;;;23.95;10.98;;;;;;;7.20;60.14;100330.22;10382911;28;20045;-61
2021/11/07 02:09:55;;;;;;;28.58;13.20;;;;;;;7.17;60.30;100309.53;10384068;28;20764;-64
2021/11/07 02:14:57;;;;;;;10.80;6.03;;;;;;;7.23;60.22;100298.88;10382692;28;20053;-63
2021/11/07 02:20:04;;;;;;;7.85;4.90;;;;;;;7.21;60.31;100295.50;10384191;28;20057;-63
2021/11/07 02:25:07;;;;;;;10.02;5.20;;;;;;;7.11;60.49;100302.81;10383343;28;20060;-64
2021/11/07 02:30:12;;;;;;;9.23;5.13;;;;;;;7.08;60.67;100300.31;10383095;28;20057;-63
2021/11/07 02:35:14;;;;;;;11.98;6.60;;;;;;;7.14;60.66;100287.06;10383924;28;20052;-63
2021/11/07 02:40:18;;;;;;;16.13;9.15;;;;;;;7.24;60.54;100260.72;10383433;28;20057;-63
2021/11/07 02:45:20;;;;;;;9.40;6.07;;;;;;;7.28;60.59;100244.06;10382472;28;20087;-63
2021/11/07 02:50:22;;;;;;;10.27;6.00;;;;;;;7.24;60.85;100243.34;10383220;28;20143;-63
2021/11/07 02:55:25;;;;;;;9.02;5.57;;;;;;;7.16;60.96;100217.63;10383046;28;20065;-62
2021/11/07 03:00:30;;;;;;;9.52;5.63;;;;;;;7.28;61.00;100228.47;10382905;28;20054;-63
2021/11/07 03:05:33;;;;;;;9.48;5.15;;;;;;;7.25;61.14;100221.63;10394180;28;20061;-62
2021/11/07 03:10:34;;;;;;;7.60;5.35;;;;;;;7.36;61.54;100203.81;10399422;28;20050;-63
2021/11/07 03:15:39;;;;;;;9.57;5.20;;;;;;;7.34;62.07;100187.44;10398476;28;20056;-63
2021/11/07 03:20:41;;;;;;;8.65;5.43;;;;;;;7.36;62.47;100189.94;10398606;28;20481;-62
2021/11/07 03:25:49;;;;;;;10.18;5.22;;;;;;;7.33;62.98;100183.13;10398441;28;20519;-62
2021/11/07 03:36:07;;;;;;;11.60;5.25;;;;;;;7.33;63.47;100174.47;10398840;28;20050;-62
2021/11/07 03:41:09;;;;;;;7.97;4.90;;;;;;;7.46;63.49;100160.88;10396671;28;20045;-63
2021/11/07 03:46:12;;;;;;;9.48;4.65;;;;;;;7.43;63.82;100161.00;10397859;28;20049;-63
2021/11/07 03:51:15;;;;;;;9.00;5.05;;;;;;;7.45;63.88;100148.75;10397062;28;20512;-63
2021/11/07 03:56:17;;;;;;;8.35;4.72;;;;;;;7.51;63.71;100151.09;10397317;28;20037;-63
2021/11/07 04:01:19;;;;;;;10.13;4.68;;;;;;;7.49;63.91;100120.88;10396677;28;20144;-62
2021/11/07 04:06:21;;;;;;;9.13;4.80;;;;;;;7.55;63.85;100137.03;10388978;28;20053;-62
2021/11/07 04:11:23;;;;;;;10.68;4.55;;;;;;;7.53;63.79;100115.44;10387963;28;20057;-63
2021/11/07 04:16:25;;;;;;;8.55;4.65;;;;;;;7.54;63.87;100119.75;10388531;28;20075;-62
2021/11/07 04:21:27;;;;;;;9.38;4.70;;;;;;;7.59;63.99;100124.75;10389408;28;20414;-62
2021/11/07 04:26:31;;;;;;;7.38;4.55;;;;;;;7.55;64.06;100118.81;10388873;28;20052;-62
2021/11/07 04:31:33;;;;;;;9.13;4.50;;;;;;;7.62;63.95;100119.41;10387353;28;20493;-62
2021/11/07 04:36:35;;;;;;;10.00;4.47;;;;;;;7.56;63.91;100093.66;10389461;28;20056;-62
2021/11/07 04:41:37;;;;;;;7.25;3.92;;;;;;;7.62;63.81;100088.16;10387254;28;20052;-62
2021/11/07 04:46:39;;;;;;;7.03;3.78;;;;;;;7.59;63.86;100068.31;10388591;28;20053;-62
2021/11/07 04:51:41;;;;;;;7.28;4.15;;;;;;;7.51;63.99;100065.22;10388541;28;20049;-62
2021/11/07 04:56:43;;;;;;;6.57;3.85;;;;;;;7.65;63.78;100052.41;10386693;28;20049;-62
2021/11/07 05:01:45;;;;;;;8.10;3.80;;;;;;;7.64;63.77;100065.50;10388136;28;20136;-62
2021/11/07 05:06:50;;;;;;;9.70;3.88;;;;;;;7.65;63.67;100073.25;10387218;28;20094;-62
2021/11/07 05:11:52;;;;;;;5.43;3.60;;;;;;;7.81;63.51;100068.19;10387602;28;20045;-62
2021/11/07 05:16:54;;;;;;;6.88;3.80;;;;;;;7.73;64.31;100049.50;10386788;28;20055;-62
2021/11/07 05:21:55;;;;;;;7.38;4.28;;;;;;;7.60;64.81;100044.00;10386629;28;20045;-62
2021/11/07 05:26:57;;;;;;;10.18;4.85;;;;;;;7.63;64.59;100038.63;10387208;28;20144;-62
2021/11/07 05:32:00;;;;;;;7.35;3.67;;;;;;;7.63;64.52;100028.22;10386535;28;20057;-62
2021/11/07 05:37:02;;;;;;;8.48;4.07;;;;;;;7.72;64.34;100026.97;10385377;28;20057;-63
2021/11/07 05:42:05;;;;;;;8.02;4.07;;;;;;;7.72;64.02;100011.34;10385006;28;20056;-62
2021/11/07 05:47:07;;;;;;;10.35;4.10;;;;;;;7.60;64.26;99997.16;10386564;28;20053;-62
2021/11/07 05:52:08;;;;;;;7.40;3.83;;;;;;;7.68;63.94;99987.22;10384684;28;20045;-62
2021/11/07 05:57:10;;;;;;;7.65;3.85;;;;;;;7.64;64.18;100014.31;10385998;28;20362;-62
2021/11/07 06:02:12;;;;;;;7.68;4.13;;;;;;;7.72;64.03;100006.97;10384273;28;20060;-63
2021/11/07 06:07:14;;;;;;;6.22;3.60;;;;;;;7.77;63.97;100011.97;10385199;28;20561;-62
2021/11/07 06:12:16;;;;;;;7.03;3.80;;;;;;;7.76;63.96;100012.88;10383083;28;20045;-62
2021/11/07 06:17:18;;;;;;;6.28;3.70;;;;;;;7.74;64.15;99989.53;10384948;28;20652;-62
2021/11/07 06:22:20;;;;;;;7.07;3.67;;;;;;;7.73;64.21;99980.03;10384875;28;20138;-62
2021/11/07 06:27:22;;;;;;;6.80;3.40;;;;;;;7.80;64.03;99986.63;10385699;28;20242;-62
2021/11/07 06:32:23;;;;;;;6.35;3.72;;;;;;;7.79;64.00;99978.91;10384926;28;20053;-62
2021/11/07 06:37:25;;;;;;;6.72;3.85;;;;;;;7.73;64.27;99984.41;10384652;28;20045;-62
2021/11/07 06:42:27;;;;;;;7.55;3.35;;;;;;;7.74;64.21;99980.88;10383863;28;20482;-62
2021/11/07 06:47:29;;;;;;;4.82;3.22;;;;;;;7.76;64.26;99976.44;10380126;28;20056;-62
2021/11/07 06:52:31;;;;;;;8.15;3.78;;;;;;;7.83;63.92;99968.25;10380020;28;20060;-62
2021/11/07 06:57:33;;;;;;;7.45;3.38;;;;;;;7.77;64.36;99981.56;10383498;28;20061;-63
2021/11/07 07:02:35;;;;;;;5.78;3.63;;;;;;;7.86;64.14;99981.13;10383795;28;20156;-63
2021/11/07 07:07:41;;;;;;;6.22;3.70;;;;;;;7.80;64.67;99991.00;10384008;28;20076;-63
2021/11/07 07:12:49;;;;;;;8.43;3.70;;;;;;;7.79;65.01;99982.31;10383368;28;20045;-63
2021/11/07 07:23:36;;;;;;;5.57;3.65;;;;;;;7.56;66.40;99990.41;10382865;28;20050;-63
2021/11/07 07:38:50;;;;;;;7.32;4.10;;;;;;;7.91;65.57;99991.34;10380988;28;20048;-63
2021/11/07 07:43:53;;;;;;;6.25;4.07;;;;;;;8.15;65.10;99997.16;10377313;28;20052;-63
2021/11/07 07:48:57;;;;;;;5.10;3.35;;;;;;;8.32;64.24;100010.19;10382912;28;20141;-63
2021/11/07 07:54:02;;;;;;;6.10;3.17;;;;;;;8.33;64.13;100011.88;10386475;28;20056;-63
2021/11/07 07:59:05;;;;;;;5.45;3.47;;;;;;;8.37;63.77;100005.59;10389064;28;20053;-63
2021/11/07 08:04:08;;;;;;;5.63;3.17;;;;;;;8.37;63.58;100003.00;10387014;28;20461;-63
2021/11/07 08:09:09;;;;;;;9.68;3.50;;;;;;;8.50;63.47;100020.56;10386651;28;20073;-64
2021/11/07 08:14:11;;;;;;;7.35;3.72;;;;;;;8.52;63.25;100030.91;10387767;28;20049;-63
2021/11/07 08:19:13;;;;;;;5.40;3.22;;;;;;;8.38;63.33;100021.19;10380813;28;20047;-63
2021/11/07 08:24:16;;;;;;;5.07;3.63;;;;;;;8.41;63.26;100033.19;10386753;28;20140;-64
2021/11/07 08:29:18;;;;;;;5.25;3.10;;;;;;;8.51;62.99;100030.06;10386407;28;20046;-64
2021/11/07 08:34:24;;;;;;;5.80;3.53;;;;;;;8.63;62.74;100021.63;10388733;28;20050;-63
2021/11/07 09:01:11;;;;;;;4.82;3.13;;;;;;;9.07;61.93;99969.78;10385704;28;20056;-63
2021/11/07 09:06:35;;;;;;;4.47;2.60;;;;;;;9.57;61.23;99956.59;10385293;28;20067;-63
2021/11/07 09:11:37;;;;;;;5.25;3.20;;;;;;;9.60;60.73;99957.31;10386110;28;20056;-63
2021/11/07 09:16:39;;;;;;;5.65;3.30;;;;;;;9.51;60.74;99949.09;10384813;28;20053;-62
2021/11/07 09:21:44;;;;;;;5.70;2.90;;;;;;;9.72;60.34;99955.78;10383834;28;20480;-62
2021/11/07 09:26:48;;;;;;;4.28;3.03;;;;;;;9.94;59.92;99950.19;10387181;28;20144;-62
2021/11/07 09:37:41;;;;;;;5.93;2.83;;;;;;;9.87;59.95;99972.38;10387206;28;20053;-62
2021/11/07 09:47:48;;;;;;;4.25;3.00;;;;;;;10.45;58.42;99962.88;10386713;28;20050;-62
2021/11/07 09:52:53;;;;;;;5.43;3.00;;;;;;;10.05;58.90;99984.41;10386955;28;20498;-62
2021/11/07 09:57:57;;;;;;;4.30;2.97;;;;;;;9.61;60.25;99982.47;10386222;28;20112;-62
2021/11/07 10:02:59;;;;;;;4.55;3.10;;;;;;;9.41;61.09;99979.25;10386130;28;20085;-62
2021/11/07 10:08:05;;;;;;;4.43;3.03;;;;;;;8.97;62.75;99986.84;10384886;28;20057;-62
2021/11/07 10:13:28;;;;;;;4.85;2.90;;;;;;;9.04;63.37;99995.16;10381609;28;20081;-62
2021/11/07 10:18:44;;;;;;;5.05;2.70;;;;;;;9.12;63.19;100001.69;10383570;28;20081;-62
2021/11/07 10:23:50;;;;;;;4.63;2.85;;;;;;;9.26;62.77;100009.63;10381967;28;20049;-68
2021/11/07 10:29:02;;;;;;;4.18;2.75;;;;;;;9.59;62.47;100010.44;10381289;28;20045;-70
2021/11/07 10:45:14;;;;;;;4.85;3.05;;;;;;;9.44;62.74;100013.84;10384082;28;20058;-70
2021/11/07 10:55:44;;;;;;;4.65;3.00;;;;;;;9.84;63.14;99996.06;10383441;28;20140;-70
2021/11/07 11:00:49;;;;;;;4.63;2.88;;;;;;;9.59;63.64;99999.13;10381879;28;20041;-70
2021/11/07 11:06:09;;;;;;;5.60;2.90;;;;;;;9.40;64.52;100001.91;10379613;28;20057;-69
2021/11/07 11:37:15;;;;;;;5.68;3.70;;;;;;;9.09;65.05;99985.34;10388558;28;20045;-72
2021/11/07 11:42:34;;;;;;;5.53;3.40;;;;;;;9.19;64.97;99978.72;10390467;28;20053;-71
2021/11/07 11:49:20;;;;;;;5.32;3.30;;;;;;;9.34;64.83;99968.28;10389798;28;20494;-71
2021/11/07 11:58:49;;;;;;;9.48;5.80;;;;;;;9.49;63.95;99975.31;10389269;28;20452;-70
2021/11/07 12:04:10;;;;;;;6.45;4.50;;;;;;;9.79;63.51;99953.69;10390134;28;20059;-71
2021/11/07 12:09:55;;;;;;;10.43;5.45;;;;;;;9.80;63.02;99947.53;10390293;28;20429;-71
2021/11/07 12:15:28;;;;;;;7.45;3.88;;;;;;;9.90;62.79;99956.53;10390338;28;20140;-71
2021/11/07 12:20:32;;;;;;;7.32;3.65;;;;;;;9.89;62.72;99947.03;10389694;28;20057;-70
2021/11/07 12:25:34;;;;;;;7.40;4.47;;;;;;;9.72;63.24;99940.13;10388670;28;20059;-71
2021/11/07 12:30:37;;;;;;;9.15;4.53;;;;;;;9.83;62.95;99936.91;10388966;28;20818;-70
2021/11/07 12:36:02;;;;;;;6.25;3.63;;;;;;;9.86;62.88;99941.94;10388267;28;20506;-71
2021/11/07 12:41:25;;;;;;;5.07;3.30;;;;;;;9.81;62.71;99950.03;10386914;28;20057;-71
2021/11/07 12:46:47;;;;;;;4.53;2.85;;;;;;;9.91;62.85;99939.94;10388204;28;20343;-71
2021/11/07 12:52:16;;;;;;;6.68;3.10;;;;;;;9.79;63.23;99930.19;10388728;28;20444;-71
2021/11/07 12:57:22;;;;;;;6.38;3.20;;;;;;;10.00;62.97;99919.34;10384870;28;20041;-70
2021/11/07 13:02:30;;;;;;;5.53;3.00;;;;;;;10.05;62.65;99901.66;10387508;28;20405;-70
2021/11/07 13:07:54;;;;;;;5.13;2.80;;;;;;;10.15;62.58;99908.03;10386967;28;20588;-73
2021/11/07 13:13:04;;;;;;;6.13;2.60;;;;;;;10.02;62.89;99907.03;10387236;28;20132;-70
2021/11/07 13:33:31;;;;;;;4.75;2.63;;;;;;;10.69;61.64;99896.03;10384869;28;20123;-72
2021/11/07 13:38:53;;;;;;;7.22;2.83;;;;;;;10.25;62.11;99888.25;10386652;28;20135;-72
2021/11/07 13:44:01;;;;;;;5.00;2.75;;;;;;;10.11;62.45;99901.28;10381975;28;20065;-72
2021/11/07 13:49:06;;;;;;;4.68;2.50;;;;;;;10.14;62.16;99893.25;10373685;28;20067;-72
2021/11/07 13:54:08;;;;;;;5.88;2.75;;;;;;;10.52;61.69;99873.50;10384195;28;20549;-72
2021/11/07 13:59:11;;;;;;;4.75;2.47;;;;;;;11.10;60.81;99878.66;10385165;28;20051;-71
2021/11/07 14:04:13;;;;;;;5.65;2.47;;;;;;;11.17;60.22;99879.13;10385151;28;20054;-72
2021/11/07 14:09:14;;;;;;;4.70;2.10;;;;;;;10.93;60.46;99888.47;10385239;28;20059;-71
2021/11/07 14:14:19;;;;;;;4.60;2.22;;;;;;;10.62;60.98;99892.13;10385072;28;20053;-72
2021/11/07 14:19:20;;;;;;;4.80;2.13;;;;;;;10.57;60.97;99894.16;10383008;28;20348;-71
2021/11/07 14:24:27;;;;;;;4.97;2.13;;;;;;;10.48;61.00;99892.13;10384427;28;20056;-71
2021/11/07 14:29:36;;;;;;;6.97;2.22;;;;;;;10.38;61.19;99890.94;10384005;28;20052;-71
2021/11/07 14:40:07;;;;;;;6.65;2.40;;;;;;;10.40;60.97;99897.78;10383627;28;20140;-71
2021/11/07 15:11:41;;;;;;;8.02;2.35;;;;;;;10.00;60.64;99876.69;10390448;28;20056;-72
2021/11/07 15:16:53;;;;;;;13.10;2.25;;;;;;;10.03;60.70;99889.59;10391717;28;20049;-71
2021/11/07 15:27:05;;;;;;;8.35;2.05;;;;;;;10.05;59.75;99896.41;10391870;28;20057;-71
2021/11/07 15:32:13;;;;;;;9.43;2.92;;;;;;;9.89;59.70;99897.38;10390312;28;20053;-72
2021/11/07 15:37:27;;;;;;;8.40;2.22;;;;;;;9.79;59.33;99898.84;10385088;28;20053;-72
2021/11/07 15:42:33;;;;;;;6.50;2.10;;;;;;;9.56;59.76;99916.59;10387563;28;20045;-72
2021/11/07 15:47:41;;;;;;;9.20;2.13;;;;;;;9.52;59.85;99922.91;10388596;28;20053;-71
2021/11/07 16:08:36;;;;;;;9.15;2.10;;;;;;;9.07;60.72;99929.81;10387643;28;20053;-72
2021/11/07 16:18:42;;;;;;;7.72;2.40;;;;;;;9.12;60.11;99936.47;10387317;28;20150;-72
2021/11/07 16:23:44;;;;;;;10.93;2.22;;;;;;;9.07;60.24;99964.56;10385754;28;20593;-72
2021/11/07 16:28:47;;;;;;;8.63;2.58;;;;;;;9.07;60.13;99956.75;10387511;28;20512;-72
2021/11/07 16:33:53;;;;;;;12.30;2.63;;;;;;;8.97;60.09;99952.94;10386507;28;20049;-72
2021/11/07 16:39:05;;;;;;;11.18;2.72;;;;;;;8.95;59.76;99953.94;10402599;28;20068;-72
2021/11/07 16:44:07;;;;;;;11.05;3.38;;;;;;;8.70;60.06;99959.59;10385647;28;20079;-72
2021/11/07 16:49:10;;;;;;;12.32;3.30;;;;;;;8.60;60.27;99971.41;10385935;28;20127;-72
2021/11/07 16:54:31;;;;;;;10.60;2.95;;;;;;;8.55;60.05;99973.38;10371735;28;20073;-73
2021/11/07 16:59:48;;;;;;;9.50;2.85;;;;;;;8.60;59.10;99976.63;10385466;28;20053;-72
2021/11/07 17:05:06;;;;;;;13.77;3.63;;;;;;;8.76;58.51;99983.59;10380726;28;20057;-71
2021/11/07 17:10:09;;;;;;;13.93;3.13;;;;;;;8.81;58.16;99985.97;10378740;28;20140;-73
2021/11/07 17:15:15;;;;;;;15.00;3.17;;;;;;;8.68;58.01;99990.09;10385659;28;20091;-72
2021/11/07 17:20:35;;;;;;;15.73;3.28;;;;;;;8.58;57.74;99999.31;10385726;28;20132;-72
2021/11/07 17:25:43;;;;;;;12.70;3.30;;;;;;;8.40;57.93;100011.53;10384010;28;20059;-72
2021/11/07 17:30:52;;;;;;;12.18;2.80;;;;;;;8.38;58.18;100015.13;10384806;28;20482;-63
2021/11/07 17:56:51;;;;;;;20.75;3.70;;;;;;;8.18;58.11;100051.72;10376999;28;20136;-63
2021/11/07 18:01:54;;;;;;;15.65;3.85;;;;;;;8.25;58.04;100051.34;10379997;28;20041;-64
2021/11/07 18:07:08;;;;;;;14.63;3.60;;;;;;;8.36;57.97;100056.03;10381354;28;20054;-63
2021/11/07 18:12:15;;;;;;;18.50;4.05;;;;;;;8.40;57.92;100058.44;10380221;28;20049;-64
2021/11/07 18:17:20;;;;;;;16.00;4.20;;;;;;;8.43;57.56;100066.09;10380704;28;20445;-64
2021/11/07 18:27:32;;;;;;;22.52;4.53;;;;;;;8.48;56.97;100060.66;10378975;28;20064;-63
2021/11/07 18:32:34;;;;;;;18.05;4.35;;;;;;;8.39;57.27;100050.66;10382211;28;20128;-64
2021/11/07 18:37:38;;;;;;;13.52;3.65;;;;;;;8.24;57.56;100052.25;10379737;28;20111;-64
2021/11/07 18:42:40;;;;;;;17.15;4.40;;;;;;;8.04;57.99;100061.00;10382488;28;20045;-63
2021/11/07 18:47:42;;;;;;;20.95;3.85;;;;;;;8.03;58.02;100074.09;10380568;28;20067;-64
2021/11/07 18:52:46;;;;;;;12.10;3.47;;;;;;;7.92;58.34;100082.41;10382403;28;20545;-63
2021/11/07 18:57:49;;;;;;;13.88;3.90;;;;;;;7.82;58.57;100086.34;10380581;28;20867;-64
2021/11/07 19:02:50;;;;;;;20.42;4.38;;;;;;;7.68;58.85;100083.53;10367025;28;20272;-64
2021/11/07 19:07:52;;;;;;;16.77;5.22;;;;;;;7.69;58.80;100092.19;10382337;28;20317;-64
2021/11/07 19:12:54;;;;;;;28.50;10.35;;;;;;;7.64;59.02;100092.41;10384095;28;20601;-63
2021/11/07 19:17:57;;;;;;;23.77;6.55;;;;;;;7.56;59.21;100093.66;10382403;28;20085;-63
2021/11/07 19:23:00;;;;;;;18.52;4.47;;;;;;;7.49;59.29;100098.28;10383354;28;20104;-64
2021/11/07 19:28:02;;;;;;;18.42;6.78;;;;;;;7.43;59.39;100106.34;10384256;28;20592;-64
2021/11/07 19:33:04;;;;;;;14.80;5.15;;;;;;;7.41;59.46;100109.91;10382733;28;20550;-64
2021/11/07 19:38:06;;;;;;;16.95;4.75;;;;;;;7.27;59.83;100105.34;10383691;28;20057;-64
2021/11/07 19:43:08;;;;;;;17.67;4.00;;;;;;;7.22;60.15;100107.31;10383595;28;20168;-63
2021/11/07 19:48:13;;;;;;;22.58;4.68;;;;;;;7.17;60.03;100117.03;10384620;28;20494;-64
2021/11/07 19:53:16;;;;;;;21.67;5.05;;;;;;;7.18;60.05;100113.56;10386356;28;20054;-64
2021/11/07 19:58:18;;;;;;;21.77;4.88;;;;;;;7.26;60.10;100110.63;10387097;28;20389;-64
2021/11/07 20:03:46;;;;;;;24.83;8.30;;;;;;;7.31;60.00;100119.91;10388159;28;20482;-63
2021/11/07 20:09:07;;;;;;;20.85;6.60;;;;;;;7.30;60.18;100123.44;10387917;28;20111;-64
2021/11/07 20:14:09;;;;;;;20.45;5.45;;;;;;;7.15;60.43;100124.06;10388334;28;20132;-63
2021/11/07 20:19:15;;;;;;;21.00;4.95;;;;;;;6.96;60.69;100125.75;10387216;28;20049;-64
2021/11/07 20:24:19;;;;;;;22.40;5.80;;;;;;;6.88;61.06;100135.63;10387682;28;20213;-63
2021/11/07 20:29:25;;;;;;;23.70;4.78;;;;;;;7.00;61.02;100156.75;10387722;28;20065;-64
2021/11/07 20:34:31;;;;;;;17.55;4.07;;;;;;;7.13;60.98;100163.16;10387155;28;20056;-63
2021/11/07 20:39:33;;;;;;;21.63;3.95;;;;;;;7.18;60.98;100168.19;10389113;28;20061;-64
2021/11/07 20:44:48;;;;;;;17.00;3.88;;;;;;;7.34;60.85;100163.16;10386934;28;20107;-64
2021/11/07 20:54:58;;;;;;;17.40;4.18;;;;;;;7.46;60.37;100173.88;10386939;28;20541;-63
2021/11/07 21:00:26;;;;;;;20.27;5.10;;;;;;;7.42;60.39;100185.34;10384872;28;20111;-63
2021/11/07 21:05:34;;;;;;;21.88;4.28;;;;;;;7.41;60.27;100194.03;10387163;28;20081;-64
2021/11/07 21:10:49;;;;;;;22.75;5.00;;;;;;;7.34;60.39;100191.78;10386496;28;20375;-64
2021/11/07 21:26:23;;;;;;;16.23;3.88;;;;;;;7.84;59.95;100219.91;10384505;28;20194;-64
2021/11/07 21:31:30;;;;;;;17.05;4.75;;;;;;;7.90;60.18;100221.38;10386090;28;20136;-64
2021/11/07 21:47:16;;;;;;;18.75;5.18;;;;;;;7.54;62.75;100246.41;10371847;28;20059;-64
2021/11/07 21:52:20;;;;;;;22.52;4.38;;;;;;;7.39;63.09;100237.50;10383278;28;20578;-63
2021/11/07 21:57:21;;;;;;;25.85;4.93;;;;;;;7.32;63.29;100238.69;10383880;28;20512;-64
2021/11/07 22:02:23;;;;;;;19.90;4.38;;;;;;;7.10;63.82;100241.28;10385427;28;20041;-63
2021/11/07 22:07:25;;;;;;;23.80;4.45;;;;;;;6.78;64.18;100231.34;10382944;28;20504;-63
2021/11/07 22:12:27;;;;;;;20.55;4.35;;;;;;;6.59;64.71;100226.94;10383585;28;20156;-63
2021/11/07 22:17:36;;;;;;;27.73;4.85;;;;;;;6.50;65.04;100233.31;10383646;28;20053;-62
2021/11/07 22:22:45;;;;;;;21.98;4.30;;;;;;;6.40;65.37;100231.13;10383780;28;20462;-62
2021/11/07 22:27:51;;;;;;;24.60;4.80;;;;;;;6.39;65.60;100232.88;10383545;28;20053;-62
2021/11/07 22:32:55;;;;;;;20.40;5.10;;;;;;;6.59;65.16;100233.00;10382685;28;20063;-62
2021/11/07 22:37:59;;;;;;;25.85;4.93;;;;;;;6.69;64.80;100230.88;10382862;28;20401;-63
2021/11/07 22:43:05;;;;;;;20.15;4.72;;;;;;;6.51;65.10;100218.59;10384107;28;20049;-63
2021/11/07 22:48:18;;;;;;;27.23;5.07;;;;;;;6.22;65.79;100211.88;10383733;28;20053;-63
2021/11/07 23:04:17;;;;;;;18.45;4.20;;;;;;;6.08;66.11;100237.50;10382740;28;20045;-63
2021/11/07 23:14:27;;;;;;;22.92;4.20;;;;;;;6.15;65.75;100247.59;10382365;28;20053;-63
2021/11/07 23:19:40;;;;;;;17.52;4.18;;;;;;;5.96;66.51;100262.13;10382852;28;20049;-63
2021/11/07 23:24:42;;;;;;;20.75;4.97;;;;;;;5.87;66.46;100266.81;10387612;28;20045;-63
2021/11/07 23:29:44;;;;;;;23.17;4.93;;;;;;;5.83;66.41;100268.69;10390723;28;20045;-63
2021/11/07 23:34:47;;;;;;;22.02;4.88;;;;;;;5.79;66.63;100284.41;10390064;28;20308;-63
2021/11/07 23:39:50;;;;;;;24.88;4.80;;;;;;;5.78;66.60;100285.31;10390491;28;20487;-62
2021/11/07 23:44:57;;;;;;;20.85;4.78;;;;;;;5.79;66.79;100289.59;10389056;28;20056;-64
2021/11/07 23:50:14;;;;;;;24.08;4.93;;;;;;;5.86;66.74;100291.09;10389560;28;20251;-63
2021/11/07 23:55:16;;;;;;;18.75;4.60;;;;;;;5.86;67.01;100286.72;10389285;28;20450;-63
